sensor_id;sensor_type;location;lat;lon;timestamp;P1;durP1;ratioP1;P2;durP2;ratioP2
1054;SDS011;516;51.482;7.120;2024-02-04T00:00:50;4.37;;;3.97;;
1054;SDS011;516;51.482;7.120;2024-02-04T00:03:16;4.73;;;4.30;;
1054;SDS011;516;51.482;7.120;2024-02-04T00:05:42;4.33;;;3.97;;
1054;SDS011;516;51.482;7.120;2024-02-04T00:08:07;4.90;;;4.50;;
1054;SDS011;516;51.482;7.120;2024-02-04T00:10:34;5.73;;;4.17;;
1054;SDS011;516;51.482;7.120;2024-02-04T00:12:59;3.93;;;3.63;;
1054;SDS011;516;51.482;7.120;2024-02-04T00:15:25;4.30;;;4.00;;
1054;SDS011;516;51.482;7.120;2024-02-04T00:17:50;4.27;;;3.93;;
1054;SDS011;516;51.482;7.120;2024-02-04T00:20:16;5.00;;;4.60;;
1054;SDS011;516;51.482;7.120;2024-02-04T00:22:42;4.93;;;4.53;;
1054;SDS011;516;51.482;7.120;2024-02-04T00:25:07;4.80;;;4.10;;
1054;SDS011;516;51.482;7.120;2024-02-04T00:27:36;5.20;;;4.80;;
1054;SDS011;516;51.482;7.120;2024-02-04T00:30:02;4.70;;;4.30;;
1054;SDS011;516;51.482;7.120;2024-02-04T00:32:28;4.63;;;4.23;;
1054;SDS011;516;51.482;7.120;2024-02-04T00:34:53;3.73;;;3.47;;
1054;SDS011;516;51.482;7.120;2024-02-04T00:37:19;4.63;;;4.23;;
1054;SDS011;516;51.482;7.120;2024-02-04T00:39:45;4.93;;;4.40;;
1054;SDS011;516;51.482;7.120;2024-02-04T00:42:11;4.20;;;3.80;;
1054;SDS011;516;51.482;7.120;2024-02-04T00:44:36;4.20;;;3.90;;
1054;SDS011;516;51.482;7.120;2024-02-04T00:47:02;3.87;;;3.57;;
1054;SDS011;516;51.482;7.120;2024-02-04T00:49:28;4.00;;;3.70;;
1054;SDS011;516;51.482;7.120;2024-02-04T00:51:53;4.33;;;4.03;;
1054;SDS011;516;51.482;7.120;2024-02-04T00:54:19;3.80;;;3.50;;
1054;SDS011;516;51.482;7.120;2024-02-04T00:56:45;3.97;;;3.67;;
1054;SDS011;516;51.482;7.120;2024-02-04T00:59:10;3.77;;;3.43;;
1054;SDS011;516;51.482;7.120;2024-02-04T01:01:37;4.17;;;3.77;;
1054;SDS011;516;51.482;7.120;2024-02-04T01:04:03;4.07;;;3.60;;
1054;SDS011;516;51.482;7.120;2024-02-04T01:06:29;4.20;;;3.90;;
1054;SDS011;516;51.482;7.120;2024-02-04T01:08:55;3.30;;;2.93;;
1054;SDS011;516;51.482;7.120;2024-02-04T01:11:21;3.47;;;3.17;;
1054;SDS011;516;51.482;7.120;2024-02-04T01:13:47;4.33;;;3.33;;
1054;SDS011;516;51.482;7.120;2024-02-04T01:16:13;3.63;;;3.30;;
1054;SDS011;516;51.482;7.120;2024-02-04T01:18:38;3.93;;;2.90;;
1054;SDS011;516;51.482;7.120;2024-02-04T01:21:04;3.90;;;3.60;;
1054;SDS011;516;51.482;7.120;2024-02-04T01:23:30;4.03;;;3.73;;
1054;SDS011;516;51.482;7.120;2024-02-04T01:25:55;3.43;;;3.13;;
1054;SDS011;516;51.482;7.120;2024-02-04T01:28:21;3.90;;;3.60;;
1054;SDS011;516;51.482;7.120;2024-02-04T01:30:47;3.70;;;3.40;;
1054;SDS011;516;51.482;7.120;2024-02-04T01:33:12;3.03;;;2.80;;
1054;SDS011;516;51.482;7.120;2024-02-04T01:35:38;3.40;;;3.10;;
1054;SDS011;516;51.482;7.120;2024-02-04T01:38:04;4.10;;;3.47;;
1054;SDS011;516;51.482;7.120;2024-02-04T01:40:29;3.33;;;3.13;;
1054;SDS011;516;51.482;7.120;2024-02-04T01:42:55;3.40;;;3.00;;
1054;SDS011;516;51.482;7.120;2024-02-04T01:45:21;3.53;;;3.23;;
1054;SDS011;516;51.482;7.120;2024-02-04T01:47:47;3.07;;;2.83;;
1054;SDS011;516;51.482;7.120;2024-02-04T01:50:13;3.20;;;2.93;;
1054;SDS011;516;51.482;7.120;2024-02-04T01:52:40;3.57;;;3.27;;
1054;SDS011;516;51.482;7.120;2024-02-04T01:55:07;2.63;;;2.43;;
1054;SDS011;516;51.482;7.120;2024-02-04T01:57:33;3.50;;;3.30;;
1054;SDS011;516;51.482;7.120;2024-02-04T02:00:02;2.70;;;2.50;;
1054;SDS011;516;51.482;7.120;2024-02-04T02:02:29;3.37;;;2.80;;
1054;SDS011;516;51.482;7.120;2024-02-04T02:04:58;3.03;;;2.83;;
1054;SDS011;516;51.482;7.120;2024-02-04T02:07:25;3.43;;;3.13;;
1054;SDS011;516;51.482;7.120;2024-02-04T02:09:52;2.60;;;2.40;;
1054;SDS011;516;51.482;7.120;2024-02-04T02:12:19;3.30;;;2.90;;
1054;SDS011;516;51.482;7.120;2024-02-04T02:14:54;2.70;;;2.50;;
1054;SDS011;516;51.482;7.120;2024-02-04T02:17:25;3.00;;;2.80;;
1054;SDS011;516;51.482;7.120;2024-02-04T02:20:36;3.47;;;2.70;;
1054;SDS011;516;51.482;7.120;2024-02-04T02:23:15;3.53;;;3.23;;
1054;SDS011;516;51.482;7.120;2024-02-04T02:25:47;3.10;;;2.80;;
1054;SDS011;516;51.482;7.120;2024-02-04T02:28:14;5.10;;;2.57;;
1054;SDS011;516;51.482;7.120;2024-02-04T02:30:40;2.57;;;2.37;;
1054;SDS011;516;51.482;7.120;2024-02-04T02:33:05;2.83;;;2.60;;
1054;SDS011;516;51.482;7.120;2024-02-04T02:35:33;2.60;;;2.40;;
1054;SDS011;516;51.482;7.120;2024-02-04T02:40:54;2.40;;;2.20;;
1054;SDS011;516;51.482;7.120;2024-02-04T02:43:28;2.63;;;2.43;;
1054;SDS011;516;51.482;7.120;2024-02-04T02:45:55;2.93;;;2.53;;
1054;SDS011;516;51.482;7.120;2024-02-04T02:48:20;3.20;;;2.90;;
1054;SDS011;516;51.482;7.120;2024-02-04T02:50:47;2.70;;;2.50;;
1054;SDS011;516;51.482;7.120;2024-02-04T02:53:12;2.67;;;2.47;;
1054;SDS011;516;51.482;7.120;2024-02-04T02:55:38;2.27;;;2.13;;
1054;SDS011;516;51.482;7.120;2024-02-04T02:58:05;3.07;;;2.77;;
1054;SDS011;516;51.482;7.120;2024-02-04T03:00:32;2.80;;;2.60;;
1054;SDS011;516;51.482;7.120;2024-02-04T03:02:58;2.60;;;2.40;;
1054;SDS011;516;51.482;7.120;2024-02-04T03:05:24;2.50;;;2.30;;
1054;SDS011;516;51.482;7.120;2024-02-04T03:07:50;2.30;;;2.10;;
1054;SDS011;516;51.482;7.120;2024-02-04T03:10:15;2.93;;;2.73;;
1054;SDS011;516;51.482;7.120;2024-02-04T03:12:41;2.93;;;2.73;;
1054;SDS011;516;51.482;7.120;2024-02-04T03:15:07;3.20;;;2.93;;
1054;SDS011;516;51.482;7.120;2024-02-04T03:17:32;2.57;;;2.37;;
1054;SDS011;516;51.482;7.120;2024-02-04T03:19:58;2.50;;;2.30;;
1054;SDS011;516;51.482;7.120;2024-02-04T03:22:24;2.70;;;2.50;;
1054;SDS011;516;51.482;7.120;2024-02-04T03:24:50;2.43;;;2.23;;
1054;SDS011;516;51.482;7.120;2024-02-04T03:27:17;3.10;;;2.90;;
1054;SDS011;516;51.482;7.120;2024-02-04T03:29:43;4.93;;;2.20;;
1054;SDS011;516;51.482;7.120;2024-02-04T03:32:10;2.37;;;2.03;;
1054;SDS011;516;51.482;7.120;2024-02-04T03:34:35;2.30;;;2.10;;
1054;SDS011;516;51.482;7.120;2024-02-04T03:37:01;2.73;;;2.53;;
1054;SDS011;516;51.482;7.120;2024-02-04T03:39:27;3.37;;;3.07;;
1054;SDS011;516;51.482;7.120;2024-02-04T03:41:53;2.63;;;2.43;;
1054;SDS011;516;51.482;7.120;2024-02-04T03:44:18;2.50;;;2.30;;
1054;SDS011;516;51.482;7.120;2024-02-04T03:46:47;2.40;;;2.20;;
1054;SDS011;516;51.482;7.120;2024-02-04T03:49:13;2.97;;;2.67;;
1054;SDS011;516;51.482;7.120;2024-02-04T03:51:39;2.77;;;2.57;;
1054;SDS011;516;51.482;7.120;2024-02-04T03:54:05;2.13;;;2.00;;
1054;SDS011;516;51.482;7.120;2024-02-04T03:56:31;2.67;;;2.43;;
1054;SDS011;516;51.482;7.120;2024-02-04T03:58:56;2.90;;;2.60;;
1054;SDS011;516;51.482;7.120;2024-02-04T04:01:22;2.30;;;2.10;;
1054;SDS011;516;51.482;7.120;2024-02-04T04:03:48;3.37;;;3.07;;
1054;SDS011;516;51.482;7.120;2024-02-04T04:06:14;2.67;;;2.47;;
1054;SDS011;516;51.482;7.120;2024-02-04T04:08:40;2.90;;;2.60;;
1054;SDS011;516;51.482;7.120;2024-02-04T04:11:08;2.47;;;2.27;;
1054;SDS011;516;51.482;7.120;2024-02-04T04:13:34;2.70;;;2.50;;
1054;SDS011;516;51.482;7.120;2024-02-04T04:16:00;2.47;;;2.27;;
1054;SDS011;516;51.482;7.120;2024-02-04T04:18:26;2.20;;;2.00;;
1054;SDS011;516;51.482;7.120;2024-02-04T04:20:52;2.90;;;2.60;;
1054;SDS011;516;51.482;7.120;2024-02-04T04:23:18;2.67;;;2.47;;
1054;SDS011;516;51.482;7.120;2024-02-04T04:25:43;2.17;;;1.97;;
1054;SDS011;516;51.482;7.120;2024-02-04T04:28:09;2.80;;;2.60;;
1054;SDS011;516;51.482;7.120;2024-02-04T04:30:34;1.87;;;1.77;;
1054;SDS011;516;51.482;7.120;2024-02-04T04:33:00;3.00;;;2.70;;
1054;SDS011;516;51.482;7.120;2024-02-04T04:35:26;2.30;;;2.10;;
1054;SDS011;516;51.482;7.120;2024-02-04T04:37:51;2.50;;;2.30;;
1054;SDS011;516;51.482;7.120;2024-02-04T04:40:17;2.70;;;2.50;;
1054;SDS011;516;51.482;7.120;2024-02-04T04:42:43;2.90;;;2.70;;
1054;SDS011;516;51.482;7.120;2024-02-04T04:45:09;2.87;;;2.67;;
1054;SDS011;516;51.482;7.120;2024-02-04T04:47:36;4.43;;;4.13;;
1054;SDS011;516;51.482;7.120;2024-02-04T04:50:01;5.33;;;3.80;;
1054;SDS011;516;51.482;7.120;2024-02-04T04:52:27;4.10;;;3.70;;
1054;SDS011;516;51.482;7.120;2024-02-04T04:54:54;6.40;;;5.90;;
1054;SDS011;516;51.482;7.120;2024-02-04T04:57:21;8.40;;;6.40;;
1054;SDS011;516;51.482;7.120;2024-02-04T04:59:47;8.47;;;7.83;;
1054;SDS011;516;51.482;7.120;2024-02-04T05:02:12;8.00;;;7.30;;
1054;SDS011;516;51.482;7.120;2024-02-04T05:04:38;7.20;;;6.60;;
1054;SDS011;516;51.482;7.120;2024-02-04T05:07:07;5.80;;;5.30;;
1054;SDS011;516;51.482;7.120;2024-02-04T05:09:33;7.70;;;5.43;;
1054;SDS011;516;51.482;7.120;2024-02-04T05:11:58;5.30;;;4.80;;
1054;SDS011;516;51.482;7.120;2024-02-04T05:14:24;4.23;;;3.83;;
1054;SDS011;516;51.482;7.120;2024-02-04T05:16:50;6.33;;;5.00;;
1054;SDS011;516;51.482;7.120;2024-02-04T05:19:15;3.73;;;3.13;;
1054;SDS011;516;51.482;7.120;2024-02-04T05:21:41;3.67;;;3.37;;
1054;SDS011;516;51.482;7.120;2024-02-04T05:24:06;3.70;;;3.40;;
1054;SDS011;516;51.482;7.120;2024-02-04T05:26:32;4.27;;;3.00;;
1054;SDS011;516;51.482;7.120;2024-02-04T05:28:58;3.20;;;2.67;;
1054;SDS011;516;51.482;7.120;2024-02-04T05:31:24;2.90;;;2.60;;
1054;SDS011;516;51.482;7.120;2024-02-04T05:33:51;3.67;;;2.90;;
1054;SDS011;516;51.482;7.120;2024-02-04T05:36:17;2.53;;;2.40;;
1054;SDS011;516;51.482;7.120;2024-02-04T05:38:44;2.40;;;2.20;;
1054;SDS011;516;51.482;7.120;2024-02-04T05:41:10;6.47;;;2.80;;
1054;SDS011;516;51.482;7.120;2024-02-04T05:43:36;2.97;;;2.40;;
1054;SDS011;516;51.482;7.120;2024-02-04T05:46:01;2.77;;;2.57;;
1054;SDS011;516;51.482;7.120;2024-02-04T05:48:27;2.67;;;2.47;;
1054;SDS011;516;51.482;7.120;2024-02-04T05:50:53;2.77;;;2.57;;
1054;SDS011;516;51.482;7.120;2024-02-04T05:53:18;2.73;;;2.43;;
1054;SDS011;516;51.482;7.120;2024-02-04T05:55:44;3.03;;;2.40;;
1054;SDS011;516;51.482;7.120;2024-02-04T05:58:10;2.40;;;2.20;;
1054;SDS011;516;51.482;7.120;2024-02-04T06:00:38;3.30;;;2.50;;
1054;SDS011;516;51.482;7.120;2024-02-04T06:03:04;2.33;;;2.13;;
1054;SDS011;516;51.482;7.120;2024-02-04T06:05:30;2.30;;;2.10;;
1054;SDS011;516;51.482;7.120;2024-02-04T06:07:56;2.57;;;2.40;;
1054;SDS011;516;51.482;7.120;2024-02-04T06:10:21;2.80;;;2.60;;
1054;SDS011;516;51.482;7.120;2024-02-04T06:12:47;3.60;;;2.33;;
1054;SDS011;516;51.482;7.120;2024-02-04T06:15:13;2.00;;;1.90;;
1054;SDS011;516;51.482;7.120;2024-02-04T06:17:40;2.77;;;2.50;;
1054;SDS011;516;51.482;7.120;2024-02-04T06:20:06;2.60;;;2.40;;
1054;SDS011;516;51.482;7.120;2024-02-04T06:22:33;2.20;;;2.00;;
1054;SDS011;516;51.482;7.120;2024-02-04T06:24:59;2.10;;;1.90;;
1054;SDS011;516;51.482;7.120;2024-02-04T06:27:25;2.73;;;2.53;;
1054;SDS011;516;51.482;7.120;2024-02-04T06:29:51;2.30;;;2.10;;
1054;SDS011;516;51.482;7.120;2024-02-04T06:32:16;2.00;;;1.80;;
1054;SDS011;516;51.482;7.120;2024-02-04T06:34:45;2.40;;;2.20;;
1054;SDS011;516;51.482;7.120;2024-02-04T06:37:11;2.50;;;2.27;;
1054;SDS011;516;51.482;7.120;2024-02-04T06:39:37;2.43;;;2.23;;
1054;SDS011;516;51.482;7.120;2024-02-04T06:42:03;2.13;;;1.93;;
1054;SDS011;516;51.482;7.120;2024-02-04T06:44:29;2.63;;;2.43;;
1054;SDS011;516;51.482;7.120;2024-02-04T06:46:55;3.30;;;2.50;;
1054;SDS011;516;51.482;7.120;2024-02-04T06:49:20;2.43;;;2.30;;
1054;SDS011;516;51.482;7.120;2024-02-04T06:51:47;2.30;;;2.10;;
1054;SDS011;516;51.482;7.120;2024-02-04T06:54:13;2.30;;;2.20;;
1054;SDS011;516;51.482;7.120;2024-02-04T06:56:39;2.63;;;2.43;;
1054;SDS011;516;51.482;7.120;2024-02-04T06:59:05;2.73;;;2.53;;
1054;SDS011;516;51.482;7.120;2024-02-04T07:01:32;2.87;;;2.67;;
1054;SDS011;516;51.482;7.120;2024-02-04T07:03:57;2.80;;;2.53;;
1054;SDS011;516;51.482;7.120;2024-02-04T07:06:23;3.03;;;2.33;;
1054;SDS011;516;51.482;7.120;2024-02-04T07:08:49;2.60;;;2.40;;
1054;SDS011;516;51.482;7.120;2024-02-04T07:11:15;3.07;;;2.60;;
1054;SDS011;516;51.482;7.120;2024-02-04T07:13:41;3.47;;;2.67;;
1054;SDS011;516;51.482;7.120;2024-02-04T07:16:07;2.37;;;2.27;;
1054;SDS011;516;51.482;7.120;2024-02-04T07:18:32;2.40;;;2.20;;
1054;SDS011;516;51.482;7.120;2024-02-04T07:20:58;2.97;;;2.70;;
1054;SDS011;516;51.482;7.120;2024-02-04T07:23:24;2.60;;;2.27;;
1054;SDS011;516;51.482;7.120;2024-02-04T07:25:49;2.43;;;2.30;;
1054;SDS011;516;51.482;7.120;2024-02-04T07:28:15;2.43;;;2.00;;
1054;SDS011;516;51.482;7.120;2024-02-04T07:30:41;2.77;;;2.57;;
1054;SDS011;516;51.482;7.120;2024-02-04T07:33:07;2.70;;;2.47;;
1054;SDS011;516;51.482;7.120;2024-02-04T07:35:32;2.97;;;2.77;;
1054;SDS011;516;51.482;7.120;2024-02-04T07:37:58;2.40;;;2.20;;
1054;SDS011;516;51.482;7.120;2024-02-04T07:40:24;2.90;;;2.60;;
1054;SDS011;516;51.482;7.120;2024-02-04T07:42:49;2.70;;;2.50;;
1054;SDS011;516;51.482;7.120;2024-02-04T07:45:15;2.93;;;2.73;;
1054;SDS011;516;51.482;7.120;2024-02-04T07:47:41;2.80;;;2.60;;
1054;SDS011;516;51.482;7.120;2024-02-04T07:50:06;3.10;;;2.07;;
1054;SDS011;516;51.482;7.120;2024-02-04T07:52:33;2.50;;;2.30;;
1054;SDS011;516;51.482;7.120;2024-02-04T07:54:58;2.40;;;2.20;;
1054;SDS011;516;51.482;7.120;2024-02-04T07:57:24;2.30;;;2.20;;
1054;SDS011;516;51.482;7.120;2024-02-04T07:59:50;2.63;;;2.43;;
1054;SDS011;516;51.482;7.120;2024-02-04T08:02:17;2.57;;;2.37;;
1054;SDS011;516;51.482;7.120;2024-02-04T08:04:43;2.73;;;2.53;;
1054;SDS011;516;51.482;7.120;2024-02-04T08:07:09;3.60;;;3.30;;
1054;SDS011;516;51.482;7.120;2024-02-04T08:09:34;3.03;;;2.73;;
1054;SDS011;516;51.482;7.120;2024-02-04T08:12:00;3.17;;;2.97;;
1054;SDS011;516;51.482;7.120;2024-02-04T08:14:26;2.93;;;2.73;;
1054;SDS011;516;51.482;7.120;2024-02-04T08:16:51;3.10;;;2.80;;
1054;SDS011;516;51.482;7.120;2024-02-04T08:19:18;4.60;;;3.03;;
1054;SDS011;516;51.482;7.120;2024-02-04T08:21:44;5.60;;;3.17;;
1054;SDS011;516;51.482;7.120;2024-02-04T08:24:09;4.40;;;3.30;;
1054;SDS011;516;51.482;7.120;2024-02-04T08:26:35;5.33;;;3.13;;
1054;SDS011;516;51.482;7.120;2024-02-04T08:29:01;3.83;;;3.37;;
1054;SDS011;516;51.482;7.120;2024-02-04T08:31:26;2.73;;;2.47;;
1054;SDS011;516;51.482;7.120;2024-02-04T08:33:52;3.60;;;2.83;;
1054;SDS011;516;51.482;7.120;2024-02-04T08:36:18;3.40;;;3.10;;
1054;SDS011;516;51.482;7.120;2024-02-04T08:38:44;3.27;;;2.90;;
1054;SDS011;516;51.482;7.120;2024-02-04T08:41:10;2.80;;;2.60;;
1054;SDS011;516;51.482;7.120;2024-02-04T08:43:35;3.20;;;2.90;;
1054;SDS011;516;51.482;7.120;2024-02-04T08:46:01;4.23;;;3.53;;
1054;SDS011;516;51.482;7.120;2024-02-04T08:48:27;3.13;;;2.60;;
1054;SDS011;516;51.482;7.120;2024-02-04T08:50:53;3.90;;;2.57;;
1054;SDS011;516;51.482;7.120;2024-02-04T08:53:21;3.80;;;2.67;;
1054;SDS011;516;51.482;7.120;2024-02-04T08:55:48;2.93;;;2.63;;
1054;SDS011;516;51.482;7.120;2024-02-04T08:58:15;2.20;;;2.10;;
1054;SDS011;516;51.482;7.120;2024-02-04T09:00:41;3.73;;;2.30;;
1054;SDS011;516;51.482;7.120;2024-02-04T09:03:07;7.80;;;2.50;;
1054;SDS011;516;51.482;7.120;2024-02-04T09:05:32;2.93;;;2.73;;
1054;SDS011;516;51.482;7.120;2024-02-04T09:07:58;3.13;;;2.70;;
1054;SDS011;516;51.482;7.120;2024-02-04T09:10:24;2.90;;;2.70;;
1054;SDS011;516;51.482;7.120;2024-02-04T09:12:49;4.13;;;3.43;;
1054;SDS011;516;51.482;7.120;2024-02-04T09:15:15;2.60;;;2.40;;
1054;SDS011;516;51.482;7.120;2024-02-04T09:17:41;2.80;;;2.60;;
1054;SDS011;516;51.482;7.120;2024-02-04T09:20:06;3.17;;;2.87;;
1054;SDS011;516;51.482;7.120;2024-02-04T09:22:33;3.40;;;2.50;;
1054;SDS011;516;51.482;7.120;2024-02-04T09:24:59;2.60;;;2.33;;
1054;SDS011;516;51.482;7.120;2024-02-04T09:27:25;2.73;;;2.53;;
1054;SDS011;516;51.482;7.120;2024-02-04T09:29:51;3.10;;;2.60;;
1054;SDS011;516;51.482;7.120;2024-02-04T09:32:17;2.70;;;2.50;;
1054;SDS011;516;51.482;7.120;2024-02-04T09:34:43;2.70;;;2.50;;
1054;SDS011;516;51.482;7.120;2024-02-04T09:37:08;3.23;;;2.43;;
1054;SDS011;516;51.482;7.120;2024-02-04T09:39:34;3.00;;;2.70;;
1054;SDS011;516;51.482;7.120;2024-02-04T09:42:00;3.37;;;3.00;;
1054;SDS011;516;51.482;7.120;2024-02-04T09:44:26;2.73;;;2.53;;
1054;SDS011;516;51.482;7.120;2024-02-04T09:46:53;2.80;;;2.60;;
1054;SDS011;516;51.482;7.120;2024-02-04T09:49:18;2.90;;;2.70;;
1054;SDS011;516;51.482;7.120;2024-02-04T09:51:46;3.00;;;2.40;;
1054;SDS011;516;51.482;7.120;2024-02-04T09:54:12;2.70;;;2.50;;
1054;SDS011;516;51.482;7.120;2024-02-04T09:56:41;2.57;;;2.37;;
1054;SDS011;516;51.482;7.120;2024-02-04T09:59:07;2.70;;;2.50;;
1054;SDS011;516;51.482;7.120;2024-02-04T10:01:33;2.43;;;2.23;;
1054;SDS011;516;51.482;7.120;2024-02-04T10:04:00;2.43;;;2.23;;
1054;SDS011;516;51.482;7.120;2024-02-04T10:06:27;2.60;;;2.40;;
1054;SDS011;516;51.482;7.120;2024-02-04T10:08:52;3.20;;;2.90;;
1054;SDS011;516;51.482;7.120;2024-02-04T10:11:18;3.33;;;3.03;;
1054;SDS011;516;51.482;7.120;2024-02-04T10:13:47;2.60;;;2.40;;
1054;SDS011;516;51.482;7.120;2024-02-04T10:16:15;3.03;;;2.77;;
1054;SDS011;516;51.482;7.120;2024-02-04T10:18:44;3.20;;;2.90;;
1054;SDS011;516;51.482;7.120;2024-02-04T10:21:14;2.60;;;2.40;;
1054;SDS011;516;51.482;7.120;2024-02-04T10:23:40;2.63;;;2.43;;
1054;SDS011;516;51.482;7.120;2024-02-04T10:26:05;2.77;;;2.57;;
1054;SDS011;516;51.482;7.120;2024-02-04T10:28:31;2.40;;;2.20;;
1054;SDS011;516;51.482;7.120;2024-02-04T10:30:57;3.20;;;2.37;;
1054;SDS011;516;51.482;7.120;2024-02-04T10:33:23;2.93;;;2.70;;
1054;SDS011;516;51.482;7.120;2024-02-04T10:35:48;2.43;;;2.33;;
1054;SDS011;516;51.482;7.120;2024-02-04T10:38:14;3.10;;;2.53;;
1054;SDS011;516;51.482;7.120;2024-02-04T10:40:39;2.70;;;2.50;;
1054;SDS011;516;51.482;7.120;2024-02-04T10:43:05;3.00;;;2.80;;
1054;SDS011;516;51.482;7.120;2024-02-04T10:45:32;3.27;;;2.47;;
1054;SDS011;516;51.482;7.120;2024-02-04T10:48:04;2.40;;;2.23;;
1054;SDS011;516;51.482;7.120;2024-02-04T10:50:32;3.30;;;2.47;;
1054;SDS011;516;51.482;7.120;2024-02-04T10:53:02;2.47;;;2.27;;
1054;SDS011;516;51.482;7.120;2024-02-04T10:55:30;2.60;;;2.50;;
1054;SDS011;516;51.482;7.120;2024-02-04T10:57:58;2.73;;;2.53;;
1054;SDS011;516;51.482;7.120;2024-02-04T11:00:25;2.40;;;2.13;;
1054;SDS011;516;51.482;7.120;2024-02-04T11:02:51;3.30;;;3.00;;
1054;SDS011;516;51.482;7.120;2024-02-04T11:05:19;2.67;;;2.47;;
1054;SDS011;516;51.482;7.120;2024-02-04T11:07:46;2.33;;;2.13;;
1054;SDS011;516;51.482;7.120;2024-02-04T11:10:13;2.63;;;2.43;;
1054;SDS011;516;51.482;7.120;2024-02-04T11:12:40;2.50;;;2.30;;
1054;SDS011;516;51.482;7.120;2024-02-04T11:15:07;2.83;;;2.63;;
1054;SDS011;516;51.482;7.120;2024-02-04T11:28:08;2.67;;;2.47;;
1054;SDS011;516;51.482;7.120;2024-02-04T11:30:36;2.60;;;2.40;;
1054;SDS011;516;51.482;7.120;2024-02-04T11:33:05;2.30;;;2.20;;
1054;SDS011;516;51.482;7.120;2024-02-04T11:35:34;3.00;;;2.80;;
1054;SDS011;516;51.482;7.120;2024-02-04T11:38:02;2.70;;;2.50;;
1054;SDS011;516;51.482;7.120;2024-02-04T11:40:34;3.37;;;3.17;;
1054;SDS011;516;51.482;7.120;2024-02-04T11:43:11;3.27;;;3.03;;
1054;SDS011;516;51.482;7.120;2024-02-04T11:45:39;2.53;;;2.33;;
1054;SDS011;516;51.482;7.120;2024-02-04T11:48:14;2.30;;;2.13;;
1054;SDS011;516;51.482;7.120;2024-02-04T11:50:41;2.83;;;2.60;;
1054;SDS011;516;51.482;7.120;2024-02-04T11:53:11;2.90;;;2.70;;
1054;SDS011;516;51.482;7.120;2024-02-04T11:55:39;2.90;;;2.70;;
1054;SDS011;516;51.482;7.120;2024-02-04T11:58:06;3.10;;;2.40;;
1054;SDS011;516;51.482;7.120;2024-02-04T12:00:32;3.00;;;2.80;;
1054;SDS011;516;51.482;7.120;2024-02-04T12:03:05;3.07;;;2.87;;
1054;SDS011;516;51.482;7.120;2024-02-04T12:05:35;2.40;;;2.20;;
1054;SDS011;516;51.482;7.120;2024-02-04T12:08:02;2.40;;;2.30;;
1054;SDS011;516;51.482;7.120;2024-02-04T12:10:30;2.60;;;2.40;;
1054;SDS011;516;51.482;7.120;2024-02-04T12:12:58;3.13;;;2.83;;
1054;SDS011;516;51.482;7.120;2024-02-04T12:15:25;2.50;;;2.30;;
1054;SDS011;516;51.482;7.120;2024-02-04T12:17:50;2.30;;;2.20;;
1054;SDS011;516;51.482;7.120;2024-02-04T12:20:16;2.60;;;2.40;;
1054;SDS011;516;51.482;7.120;2024-02-04T12:22:42;2.50;;;2.30;;
1054;SDS011;516;51.482;7.120;2024-02-04T12:25:08;2.23;;;2.13;;
1054;SDS011;516;51.482;7.120;2024-02-04T12:27:34;2.80;;;2.60;;
1054;SDS011;516;51.482;7.120;2024-02-04T12:30:00;2.10;;;2.00;;
1054;SDS011;516;51.482;7.120;2024-02-04T12:32:26;2.30;;;2.20;;
1054;SDS011;516;51.482;7.120;2024-02-04T12:34:52;2.13;;;2.03;;
1054;SDS011;516;51.482;7.120;2024-02-04T12:37:21;2.20;;;2.00;;
1054;SDS011;516;51.482;7.120;2024-02-04T12:39:47;2.10;;;2.00;;
1054;SDS011;516;51.482;7.120;2024-02-04T12:42:16;2.03;;;1.93;;
1054;SDS011;516;51.482;7.120;2024-02-04T12:44:47;2.47;;;2.27;;
1054;SDS011;516;51.482;7.120;2024-02-04T12:47:13;2.40;;;2.27;;
1054;SDS011;516;51.482;7.120;2024-02-04T12:49:40;2.37;;;2.20;;
1054;SDS011;516;51.482;7.120;2024-02-04T12:52:06;2.07;;;1.87;;
1054;SDS011;516;51.482;7.120;2024-02-04T12:54:45;2.60;;;2.50;;
1054;SDS011;516;51.482;7.120;2024-02-04T12:57:21;2.40;;;2.20;;
1054;SDS011;516;51.482;7.120;2024-02-04T12:59:48;2.33;;;2.20;;
1054;SDS011;516;51.482;7.120;2024-02-04T13:02:14;2.23;;;2.13;;
1054;SDS011;516;51.482;7.120;2024-02-04T13:04:40;2.57;;;2.37;;
1054;SDS011;516;51.482;7.120;2024-02-04T13:07:11;2.33;;;2.23;;
1054;SDS011;516;51.482;7.120;2024-02-04T13:09:39;2.80;;;2.60;;
1054;SDS011;516;51.482;7.120;2024-02-04T13:12:06;2.70;;;2.50;;
1054;SDS011;516;51.482;7.120;2024-02-04T13:14:34;2.90;;;2.70;;
1054;SDS011;516;51.482;7.120;2024-02-04T13:17:00;2.80;;;2.60;;
1054;SDS011;516;51.482;7.120;2024-02-04T13:19:31;2.87;;;2.70;;
1054;SDS011;516;51.482;7.120;2024-02-04T13:21:58;2.80;;;2.60;;
1054;SDS011;516;51.482;7.120;2024-02-04T13:24:24;2.47;;;2.27;;
1054;SDS011;516;51.482;7.120;2024-02-04T13:26:49;2.50;;;2.30;;
1054;SDS011;516;51.482;7.120;2024-02-04T13:29:15;2.50;;;2.30;;
1054;SDS011;516;51.482;7.120;2024-02-04T13:31:41;2.80;;;2.60;;
1054;SDS011;516;51.482;7.120;2024-02-04T13:34:06;2.80;;;2.60;;
1054;SDS011;516;51.482;7.120;2024-02-04T13:36:32;2.73;;;2.53;;
1054;SDS011;516;51.482;7.120;2024-02-04T13:38:58;2.67;;;2.47;;
1054;SDS011;516;51.482;7.120;2024-02-04T13:41:23;3.30;;;2.47;;
1054;SDS011;516;51.482;7.120;2024-02-04T13:43:49;2.37;;;2.27;;
1054;SDS011;516;51.482;7.120;2024-02-04T13:46:15;2.43;;;2.27;;
1054;SDS011;516;51.482;7.120;2024-02-04T13:48:41;2.37;;;2.20;;
1054;SDS011;516;51.482;7.120;2024-02-04T13:51:07;3.87;;;2.80;;
1054;SDS011;516;51.482;7.120;2024-02-04T13:53:33;2.57;;;2.40;;
1054;SDS011;516;51.482;7.120;2024-02-04T13:56:00;2.50;;;2.30;;
1054;SDS011;516;51.482;7.120;2024-02-04T13:58:26;2.40;;;2.20;;
1054;SDS011;516;51.482;7.120;2024-02-04T14:00:52;2.50;;;2.37;;
1054;SDS011;516;51.482;7.120;2024-02-04T14:03:18;2.60;;;2.40;;
1054;SDS011;516;51.482;7.120;2024-02-04T14:05:44;3.30;;;2.37;;
1054;SDS011;516;51.482;7.120;2024-02-04T14:08:10;2.40;;;2.20;;
1054;SDS011;516;51.482;7.120;2024-02-04T14:10:35;2.67;;;2.50;;
1054;SDS011;516;51.482;7.120;2024-02-04T14:13:02;2.60;;;2.40;;
1054;SDS011;516;51.482;7.120;2024-02-04T14:15:30;2.30;;;2.20;;
1054;SDS011;516;51.482;7.120;2024-02-04T14:17:56;2.93;;;2.10;;
1054;SDS011;516;51.482;7.120;2024-02-04T14:20:22;2.70;;;2.50;;
1054;SDS011;516;51.482;7.120;2024-02-04T14:22:49;2.80;;;2.60;;
1054;SDS011;516;51.482;7.120;2024-02-04T14:25:15;2.50;;;2.40;;
1054;SDS011;516;51.482;7.120;2024-02-04T14:27:42;2.83;;;2.63;;
1054;SDS011;516;51.482;7.120;2024-02-04T14:30:07;2.70;;;2.50;;
1054;SDS011;516;51.482;7.120;2024-02-04T14:32:34;2.60;;;2.50;;
1054;SDS011;516;51.482;7.120;2024-02-04T14:34:59;2.83;;;2.63;;
1054;SDS011;516;51.482;7.120;2024-02-04T14:37:25;2.80;;;2.60;;
1054;SDS011;516;51.482;7.120;2024-02-04T14:39:51;2.77;;;2.57;;
1054;SDS011;516;51.482;7.120;2024-02-04T14:42:17;2.47;;;2.37;;
1054;SDS011;516;51.482;7.120;2024-02-04T14:44:44;2.43;;;2.20;;
1054;SDS011;516;51.482;7.120;2024-02-04T14:47:09;2.40;;;2.20;;
1054;SDS011;516;51.482;7.120;2024-02-04T14:49:38;2.40;;;2.30;;
1054;SDS011;516;51.482;7.120;2024-02-04T14:52:03;2.20;;;2.10;;
1054;SDS011;516;51.482;7.120;2024-02-04T14:54:30;2.27;;;2.17;;
1054;SDS011;516;51.482;7.120;2024-02-04T14:56:56;2.80;;;2.60;;
1054;SDS011;516;51.482;7.120;2024-02-04T14:59:21;2.60;;;2.43;;
1054;SDS011;516;51.482;7.120;2024-02-04T15:01:47;2.90;;;2.70;;
1054;SDS011;516;51.482;7.120;2024-02-04T15:04:14;2.80;;;2.60;;
1054;SDS011;516;51.482;7.120;2024-02-04T15:06:40;2.20;;;2.10;;
1054;SDS011;516;51.482;7.120;2024-02-04T15:09:06;2.30;;;2.20;;
1054;SDS011;516;51.482;7.120;2024-02-04T15:11:32;2.80;;;2.60;;
1054;SDS011;516;51.482;7.120;2024-02-04T15:13:59;2.40;;;2.30;;
1054;SDS011;516;51.482;7.120;2024-02-04T15:16:25;2.40;;;2.20;;
1054;SDS011;516;51.482;7.120;2024-02-04T15:18:51;2.30;;;2.10;;
1054;SDS011;516;51.482;7.120;2024-02-04T15:21:17;2.60;;;2.40;;
1054;SDS011;516;51.482;7.120;2024-02-04T15:23:43;2.93;;;2.30;;
1054;SDS011;516;51.482;7.120;2024-02-04T15:26:10;2.57;;;2.40;;
1054;SDS011;516;51.482;7.120;2024-02-04T15:28:38;2.20;;;2.10;;
1054;SDS011;516;51.482;7.120;2024-02-04T15:31:04;2.77;;;2.57;;
1054;SDS011;516;51.482;7.120;2024-02-04T15:33:30;2.70;;;2.50;;
1054;SDS011;516;51.482;7.120;2024-02-04T15:35:56;2.67;;;2.47;;
1054;SDS011;516;51.482;7.120;2024-02-04T15:38:22;3.10;;;2.80;;